sensor_id;sensor_type;location;lat;lon;timestamp;pressure;altitude;pressure_sealevel;temperature;humidity
42887;BME280;29032;56.028;92.904;2023-06-04T00:02:33;99948.22;;;20.41;48.57
42887;BME280;29032;56.028;92.904;2023-06-04T00:13:14;99939.19;;;20.42;50.04
42887;BME280;29032;56.028;92.904;2023-06-04T00:18:17;99948.91;;;20.49;48.58
42887;BME280;29032;56.028;92.904;2023-06-04T00:23:19;99956.09;;;20.42;48.89
42887;BME280;29032;56.028;92.904;2023-06-04T00:28:21;99956.88;;;20.43;48.92
42887;BME280;29032;56.028;92.904;2023-06-04T00:38:45;99954.53;;;20.49;49.82
42887;BME280;29032;56.028;92.904;2023-06-04T00:43:47;99957.56;;;20.51;48.93
42887;BME280;29032;56.028;92.904;2023-06-04T00:49:09;99975.78;;;20.50;49.29
42887;BME280;29032;56.028;92.904;2023-06-04T00:54:12;99978.63;;;20.50;48.95
42887;BME280;29032;56.028;92.904;2023-06-04T00:59:16;99980.03;;;20.58;48.61
42887;BME280;29032;56.028;92.904;2023-06-04T01:04:44;99992.66;;;20.75;48.33
42887;BME280;29032;56.028;92.904;2023-06-04T01:09:46;99999.13;;;20.67;49.38
42887;BME280;29032;56.028;92.904;2023-06-04T01:14:48;99998.63;;;20.79;49.05
42887;BME280;29032;56.028;92.904;2023-06-04T01:25:25;100004.53;;;20.90;48.51
42887;BME280;29032;56.028;92.904;2023-06-04T01:30:30;100006.00;;;20.91;48.64
42887;BME280;29032;56.028;92.904;2023-06-04T01:35:34;100021.78;;;20.94;48.97
42887;BME280;29032;56.028;92.904;2023-06-04T01:40:36;100017.78;;;20.98;49.03
42887;BME280;29032;56.028;92.904;2023-06-04T01:45:38;100026.72;;;21.11;48.03
42887;BME280;29032;56.028;92.904;2023-06-04T01:50:42;100032.44;;;21.21;47.36
42887;BME280;29032;56.028;92.904;2023-06-04T01:55:44;100036.19;;;21.24;46.41
42887;BME280;29032;56.028;92.904;2023-06-04T02:00:46;100050.13;;;21.22;45.30
42887;BME280;29032;56.028;92.904;2023-06-04T02:05:49;100039.59;;;21.22;44.81
42887;BME280;29032;56.028;92.904;2023-06-04T02:10:52;100039.69;;;21.14;44.06
42887;BME280;29032;56.028;92.904;2023-06-04T02:15:54;100042.81;;;21.18;44.52
42887;BME280;29032;56.028;92.904;2023-06-04T02:21:16;100047.06;;;21.27;44.26
42887;BME280;29032;56.028;92.904;2023-06-04T02:26:37;100045.88;;;21.30;44.11
42887;BME280;29032;56.028;92.904;2023-06-04T02:31:39;100059.31;;;21.39;43.83
42887;BME280;29032;56.028;92.904;2023-06-04T02:36:42;100053.78;;;21.49;43.08
42887;BME280;29032;56.028;92.904;2023-06-04T02:41:44;100052.59;;;21.52;43.05
42887;BME280;29032;56.028;92.904;2023-06-04T02:46:46;100055.75;;;21.56;43.16
42887;BME280;29032;56.028;92.904;2023-06-04T02:51:50;100059.63;;;21.61;44.20
42887;BME280;29032;56.028;92.904;2023-06-04T02:56:52;100058.38;;;21.71;43.22
42887;BME280;29032;56.028;92.904;2023-06-04T03:01:54;100059.19;;;21.82;42.81
42887;BME280;29032;56.028;92.904;2023-06-04T03:06:58;100065.94;;;21.86;43.05
42887;BME280;29032;56.028;92.904;2023-06-04T03:12:00;100060.09;;;21.84;43.12
42887;BME280;29032;56.028;92.904;2023-06-04T03:17:03;100054.19;;;21.90;42.54
42887;BME280;29032;56.028;92.904;2023-06-04T03:22:08;100063.50;;;22.00;42.48
42887;BME280;29032;56.028;92.904;2023-06-04T03:27:10;100070.63;;;22.01;42.00
42887;BME280;29032;56.028;92.904;2023-06-04T03:32:15;100064.22;;;22.00;42.20
42887;BME280;29032;56.028;92.904;2023-06-04T03:37:20;100059.81;;;22.07;42.23
42887;BME280;29032;56.028;92.904;2023-06-04T03:42:40;100065.38;;;22.24;42.13
42887;BME280;29032;56.028;92.904;2023-06-04T03:47:43;100061.66;;;22.22;42.34
42887;BME280;29032;56.028;92.904;2023-06-04T03:52:48;100056.78;;;22.32;41.50
42887;BME280;29032;56.028;92.904;2023-06-04T03:57:50;100050.13;;;22.37;41.35
42887;BME280;29032;56.028;92.904;2023-06-04T04:02:53;100047.63;;;22.51;41.53
42887;BME280;29032;56.028;92.904;2023-06-04T04:08:04;100047.13;;;22.62;41.36
42887;BME280;29032;56.028;92.904;2023-06-04T04:13:25;100043.88;;;22.75;41.19
42887;BME280;29032;56.028;92.904;2023-06-04T04:18:27;100052.38;;;22.85;40.96
42887;BME280;29032;56.028;92.904;2023-06-04T04:23:31;100052.84;;;23.01;41.11
42887;BME280;29032;56.028;92.904;2023-06-04T04:28:34;100043.16;;;23.04;40.53
42887;BME280;29032;56.028;92.904;2023-06-04T04:33:37;100043.59;;;23.10;40.92
42887;BME280;29032;56.028;92.904;2023-06-04T04:38:42;100038.84;;;23.22;40.29
42887;BME280;29032;56.028;92.904;2023-06-04T04:43:44;100035.72;;;23.37;40.42
42887;BME280;29032;56.028;92.904;2023-06-04T04:48:57;100020.66;;;23.54;40.14
42887;BME280;29032;56.028;92.904;2023-06-04T04:54:01;100035.56;;;23.74;38.77
42887;BME280;29032;56.028;92.904;2023-06-04T04:59:04;100025.81;;;23.87;36.68
42887;BME280;29032;56.028;92.904;2023-06-04T05:04:07;100015.19;;;24.07;35.14
42887;BME280;29032;56.028;92.904;2023-06-04T05:09:10;100012.41;;;24.28;35.51
42887;BME280;29032;56.028;92.904;2023-06-04T05:14:13;100010.34;;;24.50;35.83
42887;BME280;29032;56.028;92.904;2023-06-04T05:19:16;100005.31;;;24.70;34.45
42887;BME280;29032;56.028;92.904;2023-06-04T05:24:20;100004.34;;;24.87;34.35
42887;BME280;29032;56.028;92.904;2023-06-04T05:29:23;100007.50;;;25.02;37.15
42887;BME280;29032;56.028;92.904;2023-06-04T05:34:26;100000.38;;;25.13;35.44
42887;BME280;29032;56.028;92.904;2023-06-04T05:39:29;100005.16;;;25.32;34.29
42887;BME280;29032;56.028;92.904;2023-06-04T05:44:37;100003.13;;;25.44;32.43
42887;BME280;29032;56.028;92.904;2023-06-04T05:49:40;99992.19;;;25.74;30.67
42887;BME280;29032;56.028;92.904;2023-06-04T05:54:44;99991.00;;;26.00;30.02
42887;BME280;29032;56.028;92.904;2023-06-04T06:05:16;99981.53;;;26.80;31.69
42887;BME280;29032;56.028;92.904;2023-06-04T06:16:35;99979.34;;;27.41;31.02
42887;BME280;29032;56.028;92.904;2023-06-04T06:21:38;99969.50;;;27.18;29.07
42887;BME280;29032;56.028;92.904;2023-06-04T06:26:40;99962.13;;;27.13;29.65
42887;BME280;29032;56.028;92.904;2023-06-04T06:37:06;99956.56;;;27.29;29.11
42887;BME280;29032;56.028;92.904;2023-06-04T06:47:32;99955.81;;;27.03;28.56
42887;BME280;29032;56.028;92.904;2023-06-04T06:52:36;99944.78;;;26.84;28.24
42887;BME280;29032;56.028;92.904;2023-06-04T06:57:38;99954.00;;;26.96;28.48
42887;BME280;29032;56.028;92.904;2023-06-04T07:02:41;99954.97;;;27.01;28.40
42887;BME280;29032;56.028;92.904;2023-06-04T07:07:43;99945.63;;;26.86;27.58
42887;BME280;29032;56.028;92.904;2023-06-04T07:23:27;99921.19;;;26.95;27.57
42887;BME280;29032;56.028;92.904;2023-06-04T07:28:29;99918.88;;;26.91;27.26
42887;BME280;29032;56.028;92.904;2023-06-04T07:33:33;99914.25;;;26.98;28.31
42887;BME280;29032;56.028;92.904;2023-06-04T07:38:35;99917.09;;;26.98;27.43
42887;BME280;29032;56.028;92.904;2023-06-04T07:43:37;99908.78;;;27.02;30.65
42887;BME280;29032;56.028;92.904;2023-06-04T07:48:40;99910.38;;;27.05;27.08
42887;BME280;29032;56.028;92.904;2023-06-04T07:53:43;99898.34;;;27.07;27.99
42887;BME280;29032;56.028;92.904;2023-06-04T07:58:45;99901.59;;;27.27;27.35
42887;BME280;29032;56.028;92.904;2023-06-04T08:03:48;99900.78;;;27.38;27.60
42887;BME280;29032;56.028;92.904;2023-06-04T08:08:50;99906.50;;;27.38;25.90
42887;BME280;29032;56.028;92.904;2023-06-04T08:13:52;99892.16;;;27.36;26.78
42887;BME280;29032;56.028;92.904;2023-06-04T08:18:56;99891.31;;;27.61;27.37
42887;BME280;29032;56.028;92.904;2023-06-04T08:29:37;99879.97;;;28.02;27.29
42887;BME280;29032;56.028;92.904;2023-06-04T08:34:58;99872.34;;;28.34;26.07
42887;BME280;29032;56.028;92.904;2023-06-04T08:40:00;99860.16;;;28.61;25.52
42887;BME280;29032;56.028;92.904;2023-06-04T08:45:03;99872.25;;;28.75;24.94
42887;BME280;29032;56.028;92.904;2023-06-04T08:50:09;99862.78;;;28.87;24.57
42887;BME280;29032;56.028;92.904;2023-06-04T08:55:12;99857.34;;;28.93;25.62
42887;BME280;29032;56.028;92.904;2023-06-04T09:00:15;99854.44;;;29.06;25.32
42887;BME280;29032;56.028;92.904;2023-06-04T09:10:41;99840.81;;;29.05;24.49
42887;BME280;29032;56.028;92.904;2023-06-04T09:15:43;99847.28;;;29.21;24.52
42887;BME280;29032;56.028;92.904;2023-06-04T09:26:07;99842.63;;;28.98;26.89
42887;BME280;29032;56.028;92.904;2023-06-04T09:31:10;99834.09;;;29.14;24.49
42887;BME280;29032;56.028;92.904;2023-06-04T09:36:17;99833.09;;;29.23;23.99
42887;BME280;29032;56.028;92.904;2023-06-04T09:41:19;99823.50;;;29.32;23.74
42887;BME280;29032;56.028;92.904;2023-06-04T09:46:21;99827.38;;;29.55;23.96
42887;BME280;29032;56.028;92.904;2023-06-04T09:51:24;99827.00;;;29.78;25.49
42887;BME280;29032;56.028;92.904;2023-06-04T09:56:27;99826.22;;;29.94;23.49
42887;BME280;29032;56.028;92.904;2023-06-04T10:01:47;99819.03;;;30.26;24.04
42887;BME280;29032;56.028;92.904;2023-06-04T10:06:52;99817.50;;;30.23;26.58
42887;BME280;29032;56.028;92.904;2023-06-04T10:11:57;99820.13;;;30.19;24.03
42887;BME280;29032;56.028;92.904;2023-06-04T10:17:01;99820.06;;;30.17;23.54
42887;BME280;29032;56.028;92.904;2023-06-04T10:22:07;99813.81;;;30.05;23.73
42887;BME280;29032;56.028;92.904;2023-06-04T10:27:10;99809.00;;;30.09;24.96
42887;BME280;29032;56.028;92.904;2023-06-04T10:32:13;99804.19;;;30.14;23.45
42887;BME280;29032;56.028;92.904;2023-06-04T10:37:21;99807.75;;;30.30;23.40
42887;BME280;29032;56.028;92.904;2023-06-04T10:42:24;99805.50;;;30.11;24.66
42887;BME280;29032;56.028;92.904;2023-06-04T10:47:28;99812.50;;;30.08;23.34
42887;BME280;29032;56.028;92.904;2023-06-04T10:52:32;99809.22;;;29.98;23.61
42887;BME280;29032;56.028;92.904;2023-06-04T10:57:55;99806.16;;;30.09;24.26
42887;BME280;29032;56.028;92.904;2023-06-04T11:02:58;99810.53;;;29.95;26.94
42887;BME280;29032;56.028;92.904;2023-06-04T11:08:02;99805.75;;;29.83;24.42
42887;BME280;29032;56.028;92.904;2023-06-04T11:13:05;99809.28;;;29.66;24.26
42887;BME280;29032;56.028;92.904;2023-06-04T11:18:07;99812.59;;;29.76;23.73
42887;BME280;29032;56.028;92.904;2023-06-04T11:23:12;99813.03;;;30.20;23.12
42887;BME280;29032;56.028;92.904;2023-06-04T11:28:32;99812.91;;;32.04;22.51
42887;BME280;29032;56.028;92.904;2023-06-04T11:33:45;99816.78;;;33.77;20.48
42887;BME280;29032;56.028;92.904;2023-06-04T11:38:56;99802.81;;;35.11;19.44
42887;BME280;29032;56.028;92.904;2023-06-04T11:44:01;99811.84;;;34.07;19.18
42887;BME280;29032;56.028;92.904;2023-06-04T11:49:04;99804.84;;;32.21;20.53
42887;BME280;29032;56.028;92.904;2023-06-04T11:54:07;99813.06;;;30.91;21.96
42887;BME280;29032;56.028;92.904;2023-06-04T11:59:28;99807.75;;;29.97;23.50
42887;BME280;29032;56.028;92.904;2023-06-04T12:04:48;99802.47;;;29.42;25.98
42887;BME280;29032;56.028;92.904;2023-06-04T12:09:52;99802.88;;;29.18;24.09
42887;BME280;29032;56.028;92.904;2023-06-04T12:25:55;99800.94;;;28.48;26.78
42887;BME280;29032;56.028;92.904;2023-06-04T12:30:57;99810.47;;;28.39;25.35
42887;BME280;29032;56.028;92.904;2023-06-04T12:35:59;99815.47;;;28.24;26.90
42887;BME280;29032;56.028;92.904;2023-06-04T12:41:04;99803.44;;;28.26;25.87
42887;BME280;29032;56.028;92.904;2023-06-04T12:46:06;99800.31;;;28.06;25.92
42887;BME280;29032;56.028;92.904;2023-06-04T12:51:08;99797.78;;;27.85;27.72
42887;BME280;29032;56.028;92.904;2023-06-04T12:56:12;99805.59;;;27.70;26.16
42887;BME280;29032;56.028;92.904;2023-06-04T13:01:15;99796.84;;;27.53;28.22
42887;BME280;29032;56.028;92.904;2023-06-04T13:06:17;99801.69;;;27.36;28.61
42887;BME280;29032;56.028;92.904;2023-06-04T13:11:20;99785.44;;;27.39;26.15
42887;BME280;29032;56.028;92.904;2023-06-04T13:16:22;99795.44;;;27.26;28.39
42887;BME280;29032;56.028;92.904;2023-06-04T13:21:24;99786.88;;;27.12;28.39
42887;BME280;29032;56.028;92.904;2023-06-04T13:26:28;99794.75;;;27.00;30.03
42887;BME280;29032;56.028;92.904;2023-06-04T13:31:30;99792.16;;;26.79;30.22
42887;BME280;29032;56.028;92.904;2023-06-04T13:36:32;99793.72;;;26.56;31.15
42887;BME280;29032;56.028;92.904;2023-06-04T13:41:36;99796.78;;;26.35;32.32
42887;BME280;29032;56.028;92.904;2023-06-04T13:46:38;99794.16;;;26.14;30.85
42887;BME280;29032;56.028;92.904;2023-06-04T13:51:42;99801.56;;;25.95;31.78
42887;BME280;29032;56.028;92.904;2023-06-04T13:56:47;99795.91;;;25.83;32.23
42887;BME280;29032;56.028;92.904;2023-06-04T14:01:50;99803.84;;;25.62;32.64
42887;BME280;29032;56.028;92.904;2023-06-04T14:06:52;99797.81;;;25.44;33.62
42887;BME280;29032;56.028;92.904;2023-06-04T14:17:16;99789.47;;;25.13;34.14
42887;BME280;29032;56.028;92.904;2023-06-04T14:22:19;99793.78;;;24.90;34.23
42887;BME280;29032;56.028;92.904;2023-06-04T14:27:22;99785.09;;;24.77;34.28
42887;BME280;29032;56.028;92.904;2023-06-04T14:32:24;99778.72;;;24.55;35.37
42887;BME280;29032;56.028;92.904;2023-06-04T14:43:06;99788.31;;;24.50;34.64
42887;BME280;29032;56.028;92.904;2023-06-04T14:48:26;99788.41;;;24.40;35.75
42887;BME280;29032;56.028;92.904;2023-06-04T14:53:28;99801.19;;;24.08;36.48
42887;BME280;29032;56.028;92.904;2023-06-04T14:58:32;99800.94;;;24.04;36.49
42887;BME280;29032;56.028;92.904;2023-06-04T15:03:34;99807.38;;;23.94;36.06
42887;BME280;29032;56.028;92.904;2023-06-04T15:08:36;99805.88;;;23.93;36.98
42887;BME280;29032;56.028;92.904;2023-06-04T15:13:40;99803.78;;;23.94;36.07
42887;BME280;29032;56.028;92.904;2023-06-04T15:19:00;99792.41;;;23.82;36.48
42887;BME280;29032;56.028;92.904;2023-06-04T15:24:02;99797.31;;;23.82;36.69
42887;BME280;29032;56.028;92.904;2023-06-04T15:29:24;99808.19;;;23.85;36.63
42887;BME280;29032;56.028;92.904;2023-06-04T15:34:26;99799.13;;;23.77;37.31
42887;BME280;29032;56.028;92.904;2023-06-04T15:39:28;99802.16;;;23.70;37.46
42887;BME280;29032;56.028;92.904;2023-06-04T15:44:32;99802.63;;;23.66;37.60
42887;BME280;29032;56.028;92.904;2023-06-04T15:49:34;99803.09;;;23.62;36.11
42887;BME280;29032;56.028;92.904;2023-06-04T15:54:36;99804.13;;;23.67;35.85
42887;BME280;29032;56.028;92.904;2023-06-04T15:59:40;99809.59;;;23.75;35.75
42887;BME280;29032;56.028;92.904;2023-06-04T16:04:42;99813.63;;;23.72;36.14
42887;BME280;29032;56.028;92.904;2023-06-04T16:09:44;99812.88;;;23.71;35.72
42887;BME280;29032;56.028;92.904;2023-06-04T16:14:47;99818.41;;;23.69;36.24
42887;BME280;29032;56.028;92.904;2023-06-04T16:19:49;99807.72;;;23.58;36.59
42887;BME280;29032;56.028;92.904;2023-06-04T16:24:51;99809.28;;;23.49;36.55
42887;BME280;29032;56.028;92.904;2023-06-04T16:29:55;99820.91;;;23.44;37.13
42887;BME280;29032;56.028;92.904;2023-06-04T16:34:57;99820.03;;;23.31;37.15
42887;BME280;29032;56.028;92.904;2023-06-04T16:39:59;99813.81;;;23.23;37.27
42887;BME280;29032;56.028;92.904;2023-06-04T16:45:21;99824.53;;;23.34;37.69
42887;BME280;29032;56.028;92.904;2023-06-04T16:50:23;99815.06;;;23.10;37.71
42887;BME280;29032;56.028;92.904;2023-06-04T16:55:29;99819.69;;;23.06;38.75
42887;BME280;29032;56.028;92.904;2023-06-04T17:00:47;99811.25;;;22.87;40.08
42887;BME280;29032;56.028;92.904;2023-06-04T17:05:49;99820.66;;;22.70;39.41
42887;BME280;29032;56.028;92.904;2023-06-04T17:16:13;99819.31;;;22.42;40.50
42887;BME280;29032;56.028;92.904;2023-06-04T17:21:34;99815.56;;;22.20;39.77
42887;BME280;29032;56.028;92.904;2023-06-04T17:26:36;99807.81;;;22.11;40.09
42887;BME280;29032;56.028;92.904;2023-06-04T17:31:39;99806.03;;;22.06;39.76
42887;BME280;29032;56.028;92.904;2023-06-04T17:36:41;99802.16;;;21.91;40.58
42887;BME280;29032;56.028;92.904;2023-06-04T17:41:43;99802.59;;;21.88;41.28
42887;BME280;29032;56.028;92.904;2023-06-04T17:46:47;99806.41;;;21.83;42.15
42887;BME280;29032;56.028;92.904;2023-06-04T17:51:49;99801.94;;;21.70;42.61
42887;BME280;29032;56.028;92.904;2023-06-04T17:56:51;99792.53;;;21.67;40.84
42887;BME280;29032;56.028;92.904;2023-06-04T18:02:12;99793.16;;;21.75;40.31
42887;BME280;29032;56.028;92.904;2023-06-04T18:07:14;99787.59;;;21.48;41.19
42887;BME280;29032;56.028;92.904;2023-06-04T18:12:16;99788.91;;;21.38;42.36
42887;BME280;29032;56.028;92.904;2023-06-04T18:17:20;99788.75;;;21.36;42.05
42887;BME280;29032;56.028;92.904;2023-06-04T18:22:23;99772.50;;;21.27;43.01
42887;BME280;29032;56.028;92.904;2023-06-04T18:27:43;99768.31;;;21.18;41.83
42887;BME280;29032;56.028;92.904;2023-06-04T18:32:47;99760.84;;;21.13;41.98
42887;BME280;29032;56.028;92.904;2023-06-04T18:37:49;99760.78;;;21.03;41.90
42887;BME280;29032;56.028;92.904;2023-06-04T18:42:51;99762.66;;;20.91;43.61
42887;BME280;29032;56.028;92.904;2023-06-04T18:47:54;99761.50;;;20.94;42.34
42887;BME280;29032;56.028;92.904;2023-06-04T18:52:57;99749.59;;;20.86;42.29
42887;BME280;29032;56.028;92.904;2023-06-04T19:03:20;99742.66;;;20.70;42.83
42887;BME280;29032;56.028;92.904;2023-06-04T19:08:41;99744.81;;;20.61;42.62
42887;BME280;29032;56.028;92.904;2023-06-04T19:13:43;99747.00;;;20.53;42.80
42887;BME280;29032;56.028;92.904;2023-06-04T19:19:20;99738.28;;;20.59;42.29
42887;BME280;29032;56.028;92.904;2023-06-04T19:24:22;99739.75;;;20.33;43.09
42887;BME280;29032;56.028;92.904;2023-06-04T19:29:42;99731.78;;;20.39;42.55
42887;BME280;29032;56.028;92.904;2023-06-04T19:34:46;99727.44;;;20.21;43.34
42887;BME280;29032;56.028;92.904;2023-06-04T19:39:48;99726.81;;;20.12;44.57
42887;BME280;29032;56.028;92.904;2023-06-04T19:44:50;99718.44;;;20.05;44.19
42887;BME280;29032;56.028;92.904;2023-06-04T19:49:54;99724.31;;;19.99;44.00
42887;BME280;29032;56.028;92.904;2023-06-04T19:54:56;99727.66;;;19.88;43.98
42887;BME280;29032;56.028;92.904;2023-06-04T19:59:59;99721.91;;;19.78;44.11
42887;BME280;29032;56.028;92.904;2023-06-04T20:05:02;99724.66;;;19.69;44.72
42887;BME280;29032;56.028;92.904;2023-06-04T20:10:06;99717.03;;;19.62;44.88
42887;BME280;29032;56.028;92.904;2023-06-04T20:15:08;99706.41;;;19.52;44.75
42887;BME280;29032;56.028;92.904;2023-06-04T20:20:12;99701.59;;;19.45;45.11
42887;BME280;29032;56.028;92.904;2023-06-04T20:25:14;99689.31;;;19.33;45.23
42887;BME280;29032;56.028;92.904;2023-06-04T20:30:17;99691.00;;;19.28;45.47
42887;BME280;29032;56.028;92.904;2023-06-04T20:35:21;99684.31;;;19.24;45.75
42887;BME280;29032;56.028;92.904;2023-06-04T20:40:23;99673.69;;;19.15;45.44
42887;BME280;29032;56.028;92.904;2023-06-04T20:45:43;99670.78;;;19.05;45.60
42887;BME280;29032;56.028;92.904;2023-06-04T20:50:46;99680.41;;;18.94;46.06
42887;BME280;29032;56.028;92.904;2023-06-04T20:55:49;99664.81;;;18.76;46.42
42887;BME280;29032;56.028;92.904;2023-06-04T21:00:51;99673.88;;;18.67;46.38
42887;BME280;29032;56.028;92.904;2023-06-04T21:06:12;99666.13;;;18.75;45.72
42887;BME280;29032;56.028;92.904;2023-06-04T21:11:14;99663.25;;;18.58;46.57
42887;BME280;29032;56.028;92.904;2023-06-04T21:16:16;99664.00;;;18.51;46.56
42887;BME280;29032;56.028;92.904;2023-06-04T21:21:20;99661.06;;;18.41;47.09
42887;BME280;29032;56.028;92.904;2023-06-04T21:26:22;99650.47;;;18.32;47.40
42887;BME280;29032;56.028;92.904;2023-06-04T21:31:24;99649.91;;;18.26;47.60
42887;BME280;29032;56.028;92.904;2023-06-04T21:36:28;99648.06;;;18.20;47.72
42887;BME280;29032;56.028;92.904;2023-06-04T21:41:30;99645.47;;;18.15;47.84
42887;BME280;29032;56.028;92.904;2023-06-04T21:46:50;99641.50;;;18.26;47.76
42887;BME280;29032;56.028;92.904;2023-06-04T21:51:53;99643.41;;;18.15;48.06
42887;BME280;29032;56.028;92.904;2023-06-04T21:56:55;99626.75;;;18.17;47.89
42887;BME280;29032;56.028;92.904;2023-06-04T22:01:57;99616.78;;;18.24;48.03
42887;BME280;29032;56.028;92.904;2023-06-04T22:12:40;99621.53;;;18.46;46.50
42887;BME280;29032;56.028;92.904;2023-06-04T22:17:42;99617.69;;;18.27;47.46
42887;BME280;29032;56.028;92.904;2023-06-04T22:22:45;99612.47;;;18.23;47.84
42887;BME280;29032;56.028;92.904;2023-06-04T22:27:47;99612.50;;;18.15;47.88
42887;BME280;29032;56.028;92.904;2023-06-04T22:33:08;99610.22;;;18.21;47.15
42887;BME280;29032;56.028;92.904;2023-06-04T22:38:11;99604.91;;;18.01;48.25
42887;BME280;29032;56.028;92.904;2023-06-04T22:43:13;99598.44;;;17.83;48.77
42887;BME280;29032;56.028;92.904;2023-06-04T22:48:15;99593.22;;;17.79;48.95
42887;BME280;29032;56.028;92.904;2023-06-04T22:53:19;99596.19;;;17.81;48.93
42887;BME280;29032;56.028;92.904;2023-06-04T22:58:21;99595.06;;;17.84;48.94
42887;BME280;29032;56.028;92.904;2023-06-04T23:08:44;99598.75;;;17.94;48.83
42887;BME280;29032;56.028;92.904;2023-06-04T23:19:43;99596.06;;;18.12;47.87
42887;BME280;29032;56.028;92.904;2023-06-04T23:24:47;99594.25;;;17.99;48.58
42887;BME280;29032;56.028;92.904;2023-06-04T23:29:52;99587.19;;;17.90;48.61
42887;BME280;29032;56.028;92.904;2023-06-04T23:34:54;99580.25;;;17.91;48.65
42887;BME280;29032;56.028;92.904;2023-06-04T23:39:58;99564.53;;;17.96;48.72
42887;BME280;29032;56.028;92.904;2023-06-04T23:50:20;99576.66;;;17.99;49.00
42887;BME280;29032;56.028;92.904;2023-06-04T23:55:23;99557.16;;;18.01;49.05
